sensor_id;sensor_type;location;lat;lon;timestamp;pressure;altitude;pressure_sealevel;temperature;humidity
11415;BME280;5763;42.714;23.244;2023-04-23T00:01:03;94521.25;;;11.53;63.95
11415;BME280;5763;42.714;23.244;2023-04-23T00:03:31;94522.63;;;11.67;63.44
11415;BME280;5763;42.714;23.244;2023-04-23T00:06:03;94528.09;;;11.67;63.39
11415;BME280;5763;42.714;23.244;2023-04-23T00:08:31;94527.34;;;11.66;63.23
11415;BME280;5763;42.714;23.244;2023-04-23T00:10:58;94531.91;;;11.51;63.65
11415;BME280;5763;42.714;23.244;2023-04-23T00:13:26;94533.16;;;11.50;63.29
11415;BME280;5763;42.714;23.244;2023-04-23T00:15:53;94527.34;;;11.48;63.74
11415;BME280;5763;42.714;23.244;2023-04-23T00:18:20;94530.69;;;11.43;64.06
11415;BME280;5763;42.714;23.244;2023-04-23T00:20:47;94529.78;;;11.46;63.80
11415;BME280;5763;42.714;23.244;2023-04-23T00:23:15;94531.31;;;11.47;64.01
11415;BME280;5763;42.714;23.244;2023-04-23T00:25:41;94533.16;;;11.41;63.99
11415;BME280;5763;42.714;23.244;2023-04-23T00:28:08;94523.41;;;11.31;63.80
11415;BME280;5763;42.714;23.244;2023-04-23T00:30:35;94523.72;;;11.42;63.63
11415;BME280;5763;42.714;23.244;2023-04-23T00:33:02;94522.19;;;11.32;64.46
11415;BME280;5763;42.714;23.244;2023-04-23T00:35:28;94526.44;;;11.33;64.10
11415;BME280;5763;42.714;23.244;2023-04-23T00:37:55;94521.91;;;11.39;63.79
11415;BME280;5763;42.714;23.244;2023-04-23T00:40:23;94522.19;;;11.41;63.33
11415;BME280;5763;42.714;23.244;2023-04-23T00:42:50;94526.00;;;11.35;63.70
11415;BME280;5763;42.714;23.244;2023-04-23T00:45:18;94528.13;;;11.31;63.96
11415;BME280;5763;42.714;23.244;2023-04-23T00:47:45;94531.63;;;11.22;63.99
11415;BME280;5763;42.714;23.244;2023-04-23T00:50:12;94530.13;;;11.21;64.51
11415;BME280;5763;42.714;23.244;2023-04-23T00:52:39;94525.53;;;11.18;64.49
11415;BME280;5763;42.714;23.244;2023-04-23T00:55:07;94530.13;;;11.21;64.55
11415;BME280;5763;42.714;23.244;2023-04-23T00:57:35;94521.28;;;11.26;64.08
11415;BME280;5763;42.714;23.244;2023-04-23T01:00:04;94519.16;;;11.21;63.85
11415;BME280;5763;42.714;23.244;2023-04-23T01:02:32;94526.31;;;11.28;63.63
11415;BME280;5763;42.714;23.244;2023-04-23T01:05:01;94527.09;;;11.19;64.59
11415;BME280;5763;42.714;23.244;2023-04-23T01:07:30;94532.41;;;11.14;64.41
11415;BME280;5763;42.714;23.244;2023-04-23T01:09:57;94533.78;;;11.09;64.55
11415;BME280;5763;42.714;23.244;2023-04-23T01:12:24;94522.34;;;11.11;64.67
11415;BME280;5763;42.714;23.244;2023-04-23T01:14:52;94528.91;;;11.13;64.67
11415;BME280;5763;42.714;23.244;2023-04-23T01:17:19;94529.38;;;11.12;64.36
11415;BME280;5763;42.714;23.244;2023-04-23T01:19:47;94528.28;;;11.18;64.00
11415;BME280;5763;42.714;23.244;2023-04-23T01:22:15;94535.00;;;11.08;64.34
11415;BME280;5763;42.714;23.244;2023-04-23T01:24:42;94532.09;;;11.03;65.05
11415;BME280;5763;42.714;23.244;2023-04-23T01:27:09;94530.13;;;11.03;65.27
11415;BME280;5763;42.714;23.244;2023-04-23T01:29:37;94527.53;;;11.09;64.75
11415;BME280;5763;42.714;23.244;2023-04-23T01:32:04;94525.72;;;11.06;64.99
11415;BME280;5763;42.714;23.244;2023-04-23T01:34:32;94527.38;;;11.12;64.64
11415;BME280;5763;42.714;23.244;2023-04-23T01:37:01;94528.59;;;11.02;65.42
11415;BME280;5763;42.714;23.244;2023-04-23T01:39:29;94519.78;;;10.98;65.38
11415;BME280;5763;42.714;23.244;2023-04-23T01:41:56;94522.22;;;11.05;65.54
11415;BME280;5763;42.714;23.244;2023-04-23T01:44:23;94521.00;;;10.97;65.77
11415;BME280;5763;42.714;23.244;2023-04-23T01:46:50;94528.31;;;11.00;65.82
11415;BME280;5763;42.714;23.244;2023-04-23T01:49:17;94527.53;;;11.00;65.79
11415;BME280;5763;42.714;23.244;2023-04-23T01:51:43;94527.53;;;11.00;64.91
11415;BME280;5763;42.714;23.244;2023-04-23T01:54:10;94532.53;;;10.92;65.43
11415;BME280;5763;42.714;23.244;2023-04-23T01:56:38;94529.81;;;10.92;65.61
11415;BME280;5763;42.714;23.244;2023-04-23T01:59:05;94533.16;;;10.96;65.06
11415;BME280;5763;42.714;23.244;2023-04-23T02:01:42;94540.47;;;10.90;65.29
11415;BME280;5763;42.714;23.244;2023-04-23T02:04:11;94533.91;;;10.88;65.13
11415;BME280;5763;42.714;23.244;2023-04-23T02:06:38;94531.31;;;10.75;65.52
11415;BME280;5763;42.714;23.244;2023-04-23T02:09:04;94543.78;;;10.76;65.72
11415;BME280;5763;42.714;23.244;2023-04-23T02:11:31;94535.41;;;10.62;66.39
11415;BME280;5763;42.714;23.244;2023-04-23T02:14:00;94535.56;;;10.58;66.14
11415;BME280;5763;42.714;23.244;2023-04-23T02:16:26;94536.78;;;10.57;65.36
11415;BME280;5763;42.714;23.244;2023-04-23T02:18:53;94538.72;;;10.48;65.21
11415;BME280;5763;42.714;23.244;2023-04-23T02:21:22;94529.59;;;10.42;65.24
11415;BME280;5763;42.714;23.244;2023-04-23T02:23:49;94506.56;;;10.12;65.86
11415;BME280;5763;42.714;23.244;2023-04-23T02:26:16;94539.41;;;10.30;66.18
11415;BME280;5763;42.714;23.244;2023-04-23T02:28:43;94532.72;;;10.22;66.83
11415;BME280;5763;42.714;23.244;2023-04-23T02:31:11;94538.78;;;10.26;66.88
11415;BME280;5763;42.714;23.244;2023-04-23T02:33:38;94535.31;;;10.26;67.29
11415;BME280;5763;42.714;23.244;2023-04-23T02:36:06;94544.00;;;10.33;66.96
11415;BME280;5763;42.714;23.244;2023-04-23T02:38:33;94541.28;;;10.33;66.91
11415;BME280;5763;42.714;23.244;2023-04-23T02:40:59;94536.06;;;10.26;66.76
11415;BME280;5763;42.714;23.244;2023-04-23T02:43:26;94525.75;;;10.21;66.86
11415;BME280;5763;42.714;23.244;2023-04-23T02:45:53;94532.09;;;10.18;66.97
11415;BME280;5763;42.714;23.244;2023-04-23T02:48:21;94532.09;;;10.18;67.26
11415;BME280;5763;42.714;23.244;2023-04-23T02:50:50;94536.97;;;10.23;67.33
11415;BME280;5763;42.714;23.244;2023-04-23T02:53:17;94536.06;;;10.26;67.54
11415;BME280;5763;42.714;23.244;2023-04-23T02:55:43;94544.63;;;10.37;66.55
11415;BME280;5763;42.714;23.244;2023-04-23T02:58:10;94535.47;;;10.31;66.64
11415;BME280;5763;42.714;23.244;2023-04-23T03:00:37;94543.69;;;10.31;66.52
11415;BME280;5763;42.714;23.244;2023-04-23T03:03:04;94535.78;;;10.33;66.15
11415;BME280;5763;42.714;23.244;2023-04-23T03:05:32;94547.19;;;10.32;66.34
11415;BME280;5763;42.714;23.244;2023-04-23T03:07:59;94544.59;;;10.28;66.48
11415;BME280;5763;42.714;23.244;2023-04-23T03:10:26;94548.84;;;10.29;66.44
11415;BME280;5763;42.714;23.244;2023-04-23T03:12:52;94552.47;;;10.17;66.19
11415;BME280;5763;42.714;23.244;2023-04-23T03:15:19;94553.09;;;10.21;65.83
11415;BME280;5763;42.714;23.244;2023-04-23T03:17:46;94551.34;;;10.06;66.09
11415;BME280;5763;42.714;23.244;2023-04-23T03:20:15;94548.09;;;9.98;66.10
11415;BME280;5763;42.714;23.244;2023-04-23T03:22:43;94548.47;;;9.88;66.79
11415;BME280;5763;42.714;23.244;2023-04-23T03:25:10;94549.84;;;9.83;67.40
11415;BME280;5763;42.714;23.244;2023-04-23T03:27:37;94558.34;;;9.85;68.02
11415;BME280;5763;42.714;23.244;2023-04-23T03:30:05;94545.28;;;9.80;67.77
11415;BME280;5763;42.714;23.244;2023-04-23T03:32:33;94560.13;;;9.79;68.07
11415;BME280;5763;42.714;23.244;2023-04-23T03:35:00;94551.34;;;9.84;68.21
11415;BME280;5763;42.714;23.244;2023-04-23T03:37:26;94549.44;;;9.94;67.50
11415;BME280;5763;42.714;23.244;2023-04-23T03:39:54;94557.31;;;9.92;67.20
11415;BME280;5763;42.714;23.244;2023-04-23T03:42:21;94559.75;;;9.90;67.33
11415;BME280;5763;42.714;23.244;2023-04-23T03:44:48;94557.16;;;9.86;67.47
11415;BME280;5763;42.714;23.244;2023-04-23T03:47:14;94564.56;;;9.86;67.31
11415;BME280;5763;42.714;23.244;2023-04-23T03:49:41;94562.28;;;9.84;67.12
11415;BME280;5763;42.714;23.244;2023-04-23T03:52:08;94563.28;;;9.99;66.46
11415;BME280;5763;42.714;23.244;2023-04-23T03:54:34;94556.66;;;10.09;66.04
11415;BME280;5763;42.714;23.244;2023-04-23T03:57:03;94558.81;;;10.14;66.06
11415;BME280;5763;42.714;23.244;2023-04-23T03:59:29;94560.34;;;10.15;65.95
11415;BME280;5763;42.714;23.244;2023-04-23T04:01:56;94565.94;;;10.12;66.16
11415;BME280;5763;42.714;23.244;2023-04-23T04:04:23;94568.09;;;10.17;65.79
11415;BME280;5763;42.714;23.244;2023-04-23T04:06:50;94573.41;;;10.20;66.15
11415;BME280;5763;42.714;23.244;2023-04-23T04:09:17;94572.81;;;10.25;65.83
11415;BME280;5763;42.714;23.244;2023-04-23T04:11:43;94575.31;;;10.32;66.02
11415;BME280;5763;42.714;23.244;2023-04-23T04:14:11;94574.13;;;10.42;65.59
11415;BME280;5763;42.714;23.244;2023-04-23T04:16:38;94562.22;;;10.36;65.40
11415;BME280;5763;42.714;23.244;2023-04-23T04:19:06;94573.53;;;10.47;65.33
11415;BME280;5763;42.714;23.244;2023-04-23T04:21:32;94580.34;;;10.43;65.60
11415;BME280;5763;42.714;23.244;2023-04-23T04:23:59;94581.25;;;10.40;65.41
11415;BME280;5763;42.714;23.244;2023-04-23T04:26:27;94582.47;;;10.48;65.31
11415;BME280;5763;42.714;23.244;2023-04-23T04:28:54;94581.75;;;10.56;65.07
11415;BME280;5763;42.714;23.244;2023-04-23T04:31:24;94590.88;;;10.53;65.02
11415;BME280;5763;42.714;23.244;2023-04-23T04:33:52;94589.03;;;10.50;65.29
11415;BME280;5763;42.714;23.244;2023-04-23T04:36:19;94580.06;;;10.59;65.05
11415;BME280;5763;42.714;23.244;2023-04-23T04:38:46;94591.78;;;10.59;65.09
11415;BME280;5763;42.714;23.244;2023-04-23T04:41:13;94583.59;;;10.59;65.01
11415;BME280;5763;42.714;23.244;2023-04-23T04:43:39;94592.56;;;10.69;65.30
11415;BME280;5763;42.714;23.244;2023-04-23T04:46:07;94595.16;;;10.72;65.25
11415;BME280;5763;42.714;23.244;2023-04-23T04:48:37;94601.28;;;10.85;65.06
11415;BME280;5763;42.714;23.244;2023-04-23T04:51:04;94597.78;;;10.94;64.78
11415;BME280;5763;42.714;23.244;2023-04-23T04:53:31;94599.50;;;11.00;64.56
11415;BME280;5763;42.714;23.244;2023-04-23T04:55:58;94611.50;;;11.03;64.12
11415;BME280;5763;42.714;23.244;2023-04-23T04:58:25;94607.41;;;11.07;64.03
11415;BME280;5763;42.714;23.244;2023-04-23T05:00:51;94602.84;;;11.04;64.37
11415;BME280;5763;42.714;23.244;2023-04-23T05:03:19;94604.53;;;11.20;63.92
11415;BME280;5763;42.714;23.244;2023-04-23T05:05:47;94600.44;;;11.24;64.17
11415;BME280;5763;42.714;23.244;2023-04-23T05:08:13;94609.09;;;11.23;64.20
11415;BME280;5763;42.714;23.244;2023-04-23T05:10:42;94606.03;;;11.21;65.02
11415;BME280;5763;42.714;23.244;2023-04-23T05:13:09;94605.59;;;11.31;64.96
11415;BME280;5763;42.714;23.244;2023-04-23T05:15:36;94606.22;;;11.35;64.62
11415;BME280;5763;42.714;23.244;2023-04-23T05:18:03;94610.03;;;11.38;64.89
11415;BME280;5763;42.714;23.244;2023-04-23T05:20:30;94603.94;;;11.52;64.79
11415;BME280;5763;42.714;23.244;2023-04-23T05:22:58;94613.69;;;11.53;64.51
11415;BME280;5763;42.714;23.244;2023-04-23T05:25:28;94612.00;;;11.55;64.59
11415;BME280;5763;42.714;23.244;2023-04-23T05:27:55;94615.69;;;11.61;64.43
11415;BME280;5763;42.714;23.244;2023-04-23T05:30:22;94616.59;;;11.67;64.04
11415;BME280;5763;42.714;23.244;2023-04-23T05:32:48;94614.28;;;11.66;64.27
11415;BME280;5763;42.714;23.244;2023-04-23T05:35:15;94614.75;;;11.73;63.98
11415;BME280;5763;42.714;23.244;2023-04-23T05:37:42;94619.00;;;11.83;64.12
11415;BME280;5763;42.714;23.244;2023-04-23T05:40:11;94617.31;;;11.86;64.07
11415;BME280;5763;42.714;23.244;2023-04-23T05:42:37;94622.63;;;11.89;63.93
11415;BME280;5763;42.714;23.244;2023-04-23T05:45:05;94626.94;;;11.81;64.02
11415;BME280;5763;42.714;23.244;2023-04-23T05:47:32;94629.97;;;11.92;63.69
11415;BME280;5763;42.714;23.244;2023-04-23T05:49:59;94627.66;;;12.00;63.76
11415;BME280;5763;42.714;23.244;2023-04-23T05:52:26;94632.69;;;11.92;63.58
11415;BME280;5763;42.714;23.244;2023-04-23T05:54:55;94637.25;;;11.95;63.49
11415;BME280;5763;42.714;23.244;2023-04-23T05:57:23;94624.31;;;11.87;63.46
11415;BME280;5763;42.714;23.244;2023-04-23T05:59:50;94626.44;;;11.92;63.45
11415;BME280;5763;42.714;23.244;2023-04-23T06:02:17;94632.53;;;11.87;63.94
11415;BME280;5763;42.714;23.244;2023-04-23T06:04:44;94634.06;;;11.97;63.37
11415;BME280;5763;42.714;23.244;2023-04-23T06:07:11;94629.00;;;12.04;63.57
11415;BME280;5763;42.714;23.244;2023-04-23T06:09:39;94629.00;;;12.04;63.60
11415;BME280;5763;42.714;23.244;2023-04-23T06:12:06;94627.03;;;12.05;63.59
11415;BME280;5763;42.714;23.244;2023-04-23T06:14:34;94623.53;;;12.04;63.94
11415;BME280;5763;42.714;23.244;2023-04-23T06:17:01;94627.47;;;12.12;63.20
11415;BME280;5763;42.714;23.244;2023-04-23T06:19:28;94632.34;;;12.26;63.27
11415;BME280;5763;42.714;23.244;2023-04-23T06:21:54;94625.00;;;12.23;63.78
11415;BME280;5763;42.714;23.244;2023-04-23T06:24:21;94630.66;;;12.29;62.93
11415;BME280;5763;42.714;23.244;2023-04-23T06:26:48;94631.84;;;12.28;63.04
11415;BME280;5763;42.714;23.244;2023-04-23T06:29:15;94620.69;;;12.40;62.79
11415;BME280;5763;42.714;23.244;2023-04-23T06:31:43;94622.00;;;12.54;62.74
11415;BME280;5763;42.714;23.244;2023-04-23T06:34:10;94622.38;;;12.70;62.49
11415;BME280;5763;42.714;23.244;2023-04-23T06:36:37;94627.25;;;12.75;62.65
11415;BME280;5763;42.714;23.244;2023-04-23T06:39:03;94628.38;;;12.92;61.63
11415;BME280;5763;42.714;23.244;2023-04-23T06:41:30;94625.03;;;12.97;62.24
11415;BME280;5763;42.714;23.244;2023-04-23T06:43:57;94624.03;;;12.77;62.46
11415;BME280;5763;42.714;23.244;2023-04-23T06:46:23;94625.97;;;12.85;62.68
11415;BME280;5763;42.714;23.244;2023-04-23T06:48:51;94623.03;;;12.98;62.61
11415;BME280;5763;42.714;23.244;2023-04-23T06:51:18;94623.00;;;13.07;63.00
11415;BME280;5763;42.714;23.244;2023-04-23T06:53:45;94619.38;;;13.24;62.24
11415;BME280;5763;42.714;23.244;2023-04-23T06:56:12;94618.84;;;13.35;60.64
11415;BME280;5763;42.714;23.244;2023-04-23T06:58:39;94614.91;;;13.50;60.98
11415;BME280;5763;42.714;23.244;2023-04-23T07:01:06;94611.31;;;13.59;61.45
11415;BME280;5763;42.714;23.244;2023-04-23T07:03:33;94612.75;;;13.69;60.34
11415;BME280;5763;42.714;23.244;2023-04-23T07:06:02;94618.66;;;13.76;59.65
11415;BME280;5763;42.714;23.244;2023-04-23T07:08:29;94619.69;;;13.64;59.80
11415;BME280;5763;42.714;23.244;2023-04-23T07:10:56;94619.13;;;13.75;60.22
11415;BME280;5763;42.714;23.244;2023-04-23T07:13:23;94624.09;;;13.85;60.29
11415;BME280;5763;42.714;23.244;2023-04-23T07:15:49;94622.38;;;13.88;60.89
11415;BME280;5763;42.714;23.244;2023-04-23T07:18:16;94619.25;;;13.95;60.90
11415;BME280;5763;42.714;23.244;2023-04-23T07:20:43;94607.69;;;14.05;61.46
11415;BME280;5763;42.714;23.244;2023-04-23T07:23:11;94613.59;;;14.27;60.86
11415;BME280;5763;42.714;23.244;2023-04-23T07:25:38;94614.47;;;14.33;60.73
11415;BME280;5763;42.714;23.244;2023-04-23T07:28:04;94610.63;;;14.60;59.73
11415;BME280;5763;42.714;23.244;2023-04-23T07:30:31;94611.75;;;14.68;59.93
11415;BME280;5763;42.714;23.244;2023-04-23T07:32:58;94598.91;;;14.79;59.43
11415;BME280;5763;42.714;23.244;2023-04-23T07:35:25;94607.28;;;14.70;59.39
11415;BME280;5763;42.714;23.244;2023-04-23T07:37:52;94610.03;;;14.85;58.97
11415;BME280;5763;42.714;23.244;2023-04-23T07:40:22;94614.91;;;14.95;59.32
11415;BME280;5763;42.714;23.244;2023-04-23T07:42:49;94607.56;;;15.07;59.00
11415;BME280;5763;42.714;23.244;2023-04-23T07:45:17;94611.16;;;15.13;58.66
11415;BME280;5763;42.714;23.244;2023-04-23T07:47:43;94605.72;;;15.18;58.68
11415;BME280;5763;42.714;23.244;2023-04-23T07:50:11;94613.97;;;15.33;58.80
11415;BME280;5763;42.714;23.244;2023-04-23T07:52:38;94607.97;;;15.34;58.49
11415;BME280;5763;42.714;23.244;2023-04-23T07:55:05;94610.56;;;15.43;58.78
11415;BME280;5763;42.714;23.244;2023-04-23T07:57:33;94609.06;;;15.62;58.67
11415;BME280;5763;42.714;23.244;2023-04-23T08:00:00;94612.84;;;15.45;58.11
11415;BME280;5763;42.714;23.244;2023-04-23T08:02:27;94610.72;;;15.54;56.90
11415;BME280;5763;42.714;23.244;2023-04-23T08:04:54;94604.84;;;15.67;56.58
11415;BME280;5763;42.714;23.244;2023-04-23T08:07:21;94605.84;;;15.89;56.52
11415;BME280;5763;42.714;23.244;2023-04-23T08:09:47;94607.81;;;16.09;57.15
11415;BME280;5763;42.714;23.244;2023-04-23T08:12:14;94605.94;;;16.20;55.66
11415;BME280;5763;42.714;23.244;2023-04-23T08:14:43;94614.22;;;16.46;55.50
11415;BME280;5763;42.714;23.244;2023-04-23T08:17:11;94607.84;;;16.65;56.95
11415;BME280;5763;42.714;23.244;2023-04-23T08:19:38;94601.94;;;16.83;54.81
11415;BME280;5763;42.714;23.244;2023-04-23T08:22:05;94605.59;;;16.69;53.33
11415;BME280;5763;42.714;23.244;2023-04-23T08:24:32;94610.03;;;16.56;53.33
11415;BME280;5763;42.714;23.244;2023-04-23T08:26:58;94603.72;;;16.55;53.53
11415;BME280;5763;42.714;23.244;2023-04-23T08:29:26;94596.41;;;16.83;53.52
11415;BME280;5763;42.714;23.244;2023-04-23T08:31:54;94598.03;;;17.01;53.22
11415;BME280;5763;42.714;23.244;2023-04-23T08:34:21;94590.06;;;17.08;51.25
11415;BME280;5763;42.714;23.244;2023-04-23T08:36:47;94588.66;;;17.29;50.55
11415;BME280;5763;42.714;23.244;2023-04-23T08:39:14;94594.19;;;17.29;49.96
11415;BME280;5763;42.714;23.244;2023-04-23T08:41:42;94592.34;;;17.15;50.51
11415;BME280;5763;42.714;23.244;2023-04-23T08:44:13;94581.13;;;17.35;49.67
11415;BME280;5763;42.714;23.244;2023-04-23T08:46:43;94578.69;;;17.43;49.93
11415;BME280;5763;42.714;23.244;2023-04-23T08:49:13;94576.31;;;17.78;50.32
11415;BME280;5763;42.714;23.244;2023-04-23T08:51:42;94573.09;;;18.02;48.90
11415;BME280;5763;42.714;23.244;2023-04-23T08:54:15;94578.66;;;18.23;49.22
11415;BME280;5763;42.714;23.244;2023-04-23T08:56:44;94569.66;;;18.45;49.58
11415;BME280;5763;42.714;23.244;2023-04-23T08:59:11;94572.91;;;18.66;46.97
11415;BME280;5763;42.714;23.244;2023-04-23T09:01:39;94555.25;;;18.85;45.87
11415;BME280;5763;42.714;23.244;2023-04-23T09:04:07;94561.03;;;18.98;44.45
11415;BME280;5763;42.714;23.244;2023-04-23T09:06:36;94563.28;;;19.05;45.65
11415;BME280;5763;42.714;23.244;2023-04-23T09:09:03;94555.47;;;18.98;45.09
11415;BME280;5763;42.714;23.244;2023-04-23T09:11:33;94559.25;;;19.01;44.84
11415;BME280;5763;42.714;23.244;2023-04-23T09:14:02;94559.50;;;19.08;44.19
11415;BME280;5763;42.714;23.244;2023-04-23T09:16:29;94552.41;;;19.29;42.32
11415;BME280;5763;42.714;23.244;2023-04-23T09:18:57;94562.75;;;19.12;44.16
11415;BME280;5763;42.714;23.244;2023-04-23T09:21:24;94554.72;;;18.87;44.51
11415;BME280;5763;42.714;23.244;2023-04-23T09:23:52;94550.22;;;18.78;44.77
11415;BME280;5763;42.714;23.244;2023-04-23T09:26:20;94561.09;;;18.54;44.08
11415;BME280;5763;42.714;23.244;2023-04-23T09:28:48;94549.75;;;18.58;43.94
11415;BME280;5763;42.714;23.244;2023-04-23T09:31:19;94543.69;;;18.54;44.54
11415;BME280;5763;42.714;23.244;2023-04-23T09:33:50;94540.91;;;18.54;44.50
11415;BME280;5763;42.714;23.244;2023-04-23T09:36:19;94546.44;;;18.70;43.98
11415;BME280;5763;42.714;23.244;2023-04-23T09:38:47;94542.91;;;18.86;42.31
11415;BME280;5763;42.714;23.244;2023-04-23T09:41:22;94541.41;;;18.69;43.08
11415;BME280;5763;42.714;23.244;2023-04-23T09:43:52;94533.56;;;18.89;44.06
11415;BME280;5763;42.714;23.244;2023-04-23T09:46:18;94528.44;;;19.32;43.22
11415;BME280;5763;42.714;23.244;2023-04-23T09:49:00;94522.63;;;19.87;42.24
11415;BME280;5763;42.714;23.244;2023-04-23T09:51:28;94525.91;;;19.85;41.09
11415;BME280;5763;42.714;23.244;2023-04-23T09:53:56;94519.19;;;19.70;40.76
11415;BME280;5763;42.714;23.244;2023-04-23T09:56:24;94512.38;;;19.65;41.44
11415;BME280;5763;42.714;23.244;2023-04-23T09:58:51;94521.34;;;19.88;41.78
11415;BME280;5763;42.714;23.244;2023-04-23T10:01:26;94508.31;;;19.72;39.76
11415;BME280;5763;42.714;23.244;2023-04-23T10:03:54;94508.59;;;19.63;40.29
11415;BME280;5763;42.714;23.244;2023-04-23T10:06:26;94517.94;;;19.65;41.28
11415;BME280;5763;42.714;23.244;2023-04-23T10:08:55;94509.81;;;19.73;40.60
11415;BME280;5763;42.714;23.244;2023-04-23T10:11:22;94511.09;;;20.12;39.38
11415;BME280;5763;42.714;23.244;2023-04-23T10:13:52;94505.69;;;20.60;37.82
11415;BME280;5763;42.714;23.244;2023-04-23T10:16:20;94499.84;;;20.88;37.92
11415;BME280;5763;42.714;23.244;2023-04-23T10:18:49;94498.72;;;21.44;38.34
11415;BME280;5763;42.714;23.244;2023-04-23T10:21:16;94489.63;;;21.44;36.83
11415;BME280;5763;42.714;23.244;2023-04-23T10:23:46;94484.97;;;21.52;36.47
11415;BME280;5763;42.714;23.244;2023-04-23T10:26:14;94486.44;;;21.77;35.76
11415;BME280;5763;42.714;23.244;2023-04-23T10:28:43;94480.94;;;22.08;37.23
11415;BME280;5763;42.714;23.244;2023-04-23T10:31:14;94477.03;;;22.30;36.46
11415;BME280;5763;42.714;23.244;2023-04-23T10:33:42;94470.53;;;22.72;35.38
11415;BME280;5763;42.714;23.244;2023-04-23T10:36:09;94468.28;;;22.96;35.40
11415;BME280;5763;42.714;23.244;2023-04-23T10:38:37;94461.56;;;23.31;33.35
11415;BME280;5763;42.714;23.244;2023-04-23T10:41:07;94464.88;;;23.42;31.75
11415;BME280;5763;42.714;23.244;2023-04-23T10:43:34;94460.88;;;23.51;31.45
11415;BME280;5763;42.714;23.244;2023-04-23T10:46:01;94453.38;;;23.59;31.97
11415;BME280;5763;42.714;23.244;2023-04-23T10:49:02;94449.28;;;23.47;32.82
11415;BME280;5763;42.714;23.244;2023-04-23T10:51:34;94445.38;;;23.63;30.71
11415;BME280;5763;42.714;23.244;2023-04-23T10:54:04;94443.94;;;23.49;31.27
11415;BME280;5763;42.714;23.244;2023-04-23T10:56:30;94443.50;;;23.45;32.01
11415;BME280;5763;42.714;23.244;2023-04-23T10:58:57;94433.94;;;23.87;29.46
11415;BME280;5763;42.714;23.244;2023-04-23T11:01:25;94425.81;;;23.89;30.42
11415;BME280;5763;42.714;23.244;2023-04-23T11:03:54;94427.88;;;23.62;29.32
11415;BME280;5763;42.714;23.244;2023-04-23T11:06:52;94420.34;;;24.04;28.62
11415;BME280;5763;42.714;23.244;2023-04-23T11:09:31;94417.28;;;23.94;28.83
11415;BME280;5763;42.714;23.244;2023-04-23T11:11:58;94414.09;;;23.77;28.65
11415;BME280;5763;42.714;23.244;2023-04-23T11:14:45;94401.19;;;23.74;28.54
11415;BME280;5763;42.714;23.244;2023-04-23T11:17:12;94411.94;;;24.04;29.29
11415;BME280;5763;42.714;23.244;2023-04-23T11:20:05;94415.31;;;24.23;27.47
11415;BME280;5763;42.714;23.244;2023-04-23T11:22:35;94407.06;;;24.17;26.87
11415;BME280;5763;42.714;23.244;2023-04-23T11:25:02;94414.56;;;24.43;26.60
11415;BME280;5763;42.714;23.244;2023-04-23T11:27:30;94412.16;;;24.88;28.01
11415;BME280;5763;42.714;23.244;2023-04-23T11:29:56;94404.84;;;25.13;26.81
11415;BME280;5763;42.714;23.244;2023-04-23T11:32:23;94403.63;;;25.01;26.69
11415;BME280;5763;42.714;23.244;2023-04-23T11:34:52;94403.03;;;24.67;25.84
11415;BME280;5763;42.714;23.244;2023-04-23T11:37:19;94397.09;;;24.09;24.92
11415;BME280;5763;42.714;23.244;2023-04-23T11:39:46;94407.66;;;24.03;25.77
11415;BME280;5763;42.714;23.244;2023-04-23T11:42:14;94402.22;;;23.97;25.26
11415;BME280;5763;42.714;23.244;2023-04-23T11:44:44;94395.41;;;24.06;25.55
11415;BME280;5763;42.714;23.244;2023-04-23T11:47:13;94393.41;;;23.80;25.83
11415;BME280;5763;42.714;23.244;2023-04-23T11:49:43;94390.84;;;23.49;27.54
11415;BME280;5763;42.714;23.244;2023-04-23T11:52:11;94388.56;;;23.94;26.94
11415;BME280;5763;42.714;23.244;2023-04-23T11:54:40;94390.47;;;24.40;24.54
11415;BME280;5763;42.714;23.244;2023-04-23T11:57:07;94389.31;;;24.56;24.61
11415;BME280;5763;42.714;23.244;2023-04-23T11:59:34;94381.84;;;25.07;23.81
11415;BME280;5763;42.714;23.244;2023-04-23T12:02:01;94392.34;;;25.57;23.05
11415;BME280;5763;42.714;23.244;2023-04-23T12:04:28;94377.69;;;25.79;22.57
11415;BME280;5763;42.714;23.244;2023-04-23T12:06:56;94376.91;;;25.78;22.49
11415;BME280;5763;42.714;23.244;2023-04-23T12:09:26;94372.88;;;26.02;22.04
11415;BME280;5763;42.714;23.244;2023-04-23T12:11:54;94378.00;;;25.68;22.60
11415;BME280;5763;42.714;23.244;2023-04-23T12:14:26;94383.53;;;25.38;22.02
11415;BME280;5763;42.714;23.244;2023-04-23T12:16:54;94383.38;;;24.87;22.90
11415;BME280;5763;42.714;23.244;2023-04-23T12:19:25;94387.69;;;24.19;23.97
11415;BME280;5763;42.714;23.244;2023-04-23T12:21:54;94377.78;;;23.64;23.29
11415;BME280;5763;42.714;23.244;2023-04-23T12:24:22;94374.44;;;23.32;23.92
11415;BME280;5763;42.714;23.244;2023-04-23T12:26:51;94371.47;;;23.04;23.69
11415;BME280;5763;42.714;23.244;2023-04-23T12:29:21;94370.81;;;22.59;23.08
11415;BME280;5763;42.714;23.244;2023-04-23T12:31:48;94363.38;;;22.36;23.96
11415;BME280;5763;42.714;23.244;2023-04-23T12:34:17;94362.69;;;22.17;23.24
11415;BME280;5763;42.714;23.244;2023-04-23T12:36:45;94356.59;;;22.18;22.69
11415;BME280;5763;42.714;23.244;2023-04-23T12:39:24;94357.63;;;22.02;24.45
11415;BME280;5763;42.714;23.244;2023-04-23T12:41:53;94353.88;;;21.68;25.47
11415;BME280;5763;42.714;23.244;2023-04-23T12:44:21;94357.09;;;21.54;26.25
11415;BME280;5763;42.714;23.244;2023-04-23T12:46:49;94354.88;;;21.34;27.16
11415;BME280;5763;42.714;23.244;2023-04-23T12:49:19;94358.47;;;21.29;27.12
11415;BME280;5763;42.714;23.244;2023-04-23T12:51:46;94355.09;;;21.17;27.22
11415;BME280;5763;42.714;23.244;2023-04-23T12:54:12;94359.00;;;21.09;27.56
11415;BME280;5763;42.714;23.244;2023-04-23T12:56:39;94354.00;;;21.02;28.11
11415;BME280;5763;42.714;23.244;2023-04-23T12:59:07;94352.50;;;21.01;28.44
11415;BME280;5763;42.714;23.244;2023-04-23T13:01:34;94346.38;;;21.08;28.58
11415;BME280;5763;42.714;23.244;2023-04-23T13:04:01;94352.53;;;21.19;28.04